createdAt,value
2018-05-14T00:00:16.794Z,12.20
2018-05-14T00:02:44.323Z,12.30
2018-05-14T00:05:11.855Z,12.30
2018-05-14T00:07:39.371Z,12.30
2018-05-14T00:10:06.884Z,12.20
2018-05-14T00:12:34.413Z,12.20
2018-05-14T00:15:01.935Z,12.20
2018-05-14T00:17:30.218Z,12.30
2018-05-14T00:19:58.512Z,12.20
2018-05-14T00:22:26.078Z,12.20
2018-05-14T00:24:53.610Z,12.20
2018-05-14T00:27:21.908Z,12.20
2018-05-14T00:29:49.425Z,12.20
2018-05-14T00:32:16.937Z,12.20
2018-05-14T00:34:44.493Z,12.20
2018-05-14T00:37:12.017Z,12.20
2018-05-14T00:39:40.295Z,12.20
2018-05-14T00:42:08.704Z,12.20
2018-05-14T00:44:36.268Z,12.20
2018-05-14T00:47:03.793Z,12.20
2018-05-14T00:49:32.096Z,12.20
2018-05-14T00:51:59.638Z,12.30
2018-05-14T00:54:27.934Z,12.20
2018-05-14T00:56:55.463Z,12.20
2018-05-14T00:59:23.057Z,12.20
2018-05-14T01:01:50.572Z,12.20
2018-05-14T01:04:18.100Z,12.20
2018-05-14T01:06:45.621Z,12.20
2018-05-14T01:09:13.923Z,12.20
2018-05-14T01:11:41.483Z,12.20
2018-05-14T01:14:08.997Z,12.20
2018-05-14T01:16:36.603Z,12.20
2018-05-14T01:19:04.367Z,12.10
2018-05-14T01:21:31.919Z,12.10
2018-05-14T01:23:59.473Z,12.10
2018-05-14T01:26:27.768Z,12.10
2018-05-14T01:28:55.313Z,12.10
2018-05-14T01:31:22.822Z,12.20
2018-05-14T01:33:50.404Z,12.10
2018-05-14T01:36:18.007Z,12.10
2018-05-14T01:38:45.528Z,12.10
2018-05-14T01:41:13.843Z,12.10
2018-05-14T01:43:41.401Z,12.10
2018-05-14T01:46:08.950Z,12.10
2018-05-14T01:48:36.469Z,12.10
2018-05-14T01:51:03.994Z,12.10
2018-05-14T01:53:31.529Z,12.10
2018-05-14T01:55:59.099Z,12.00
2018-05-14T01:58:26.613Z,12.00
2018-05-14T02:00:54.126Z,12.00
2018-05-14T02:03:21.651Z,12.00
2018-05-14T02:05:49.944Z,12.00
2018-05-14T02:08:17.501Z,11.90
2018-05-14T02:10:45.037Z,12.00
2018-05-14T02:13:13.333Z,12.00
2018-05-14T02:15:41.729Z,11.90
2018-05-14T02:18:09.269Z,11.90
2018-05-14T02:20:37.547Z,11.90
2018-05-14T02:23:05.836Z,11.90
2018-05-14T02:25:33.360Z,11.90
2018-05-14T02:28:00.878Z,11.90
2018-05-14T02:30:28.399Z,11.90
2018-05-14T02:32:55.962Z,11.90
2018-05-14T02:35:24.368Z,11.90
2018-05-14T02:37:51.909Z,11.90
2018-05-14T02:40:19.472Z,11.90
2018-05-14T02:42:47.042Z,11.90
2018-05-14T02:45:14.605Z,11.90
2018-05-14T02:47:42.144Z,11.90
2018-05-14T02:50:10.437Z,11.90
2018-05-14T02:52:37.988Z,11.90
2018-05-14T02:55:05.515Z,11.80
2018-05-14T02:57:33.035Z,11.80
2018-05-14T03:00:00.586Z,11.90
2018-05-14T03:02:28.126Z,11.80
2018-05-14T03:04:55.798Z,11.90
2018-05-14T03:07:23.220Z,11.80
2018-05-14T03:09:51.238Z,11.80
2018-05-14T03:12:18.803Z,11.80
2018-05-14T03:14:46.329Z,11.80
2018-05-14T03:17:14.632Z,11.80
2018-05-14T03:19:42.147Z,11.80
2018-05-14T03:22:10.440Z,11.70
2018-05-14T03:24:38.842Z,11.70
2018-05-14T03:27:06.352Z,11.70
2018-05-14T03:29:33.878Z,11.70
2018-05-14T03:32:01.530Z,11.70
2018-05-14T03:34:29.052Z,11.70
2018-05-14T03:36:57.353Z,11.70
2018-05-14T03:39:24.894Z,11.70
2018-05-14T03:41:53.172Z,11.60
2018-05-14T03:44:21.458Z,11.70
2018-05-14T03:46:49.852Z,11.70
2018-05-14T03:49:17.364Z,11.70
2018-05-14T03:51:44.893Z,11.70
2018-05-14T03:54:12.430Z,11.70
2018-05-14T03:56:39.977Z,11.70
2018-05-14T03:59:19.471Z,11.70
2018-05-14T04:01:59.030Z,11.70
2018-05-14T04:04:39.027Z,11.70
2018-05-14T04:07:06.549Z,11.70
2018-05-14T04:09:34.836Z,11.70
2018-05-14T04:12:03.132Z,11.70
2018-05-14T04:14:30.648Z,11.70
2018-05-14T04:16:59.204Z,11.70
2018-05-14T04:19:28.351Z,11.70
2018-05-14T04:21:56.653Z,11.60
2018-05-14T04:24:24.238Z,11.70
2018-05-14T04:26:51.783Z,11.70
2018-05-14T04:29:19.291Z,11.70
2018-05-14T04:31:46.812Z,11.70
2018-05-14T04:34:14.355Z,11.70
2018-05-14T04:36:41.925Z,11.70
2018-05-14T04:39:09.464Z,11.70
2018-05-14T04:41:37.033Z,11.70
2018-05-14T04:44:04.599Z,11.70
2018-05-14T04:46:32.120Z,11.70
2018-05-14T04:49:00.466Z,11.70
2018-05-14T04:51:27.968Z,11.70
2018-05-14T04:53:56.260Z,11.80
2018-05-14T04:56:23.835Z,11.80
2018-05-14T04:58:51.396Z,11.80
2018-05-14T05:01:18.929Z,11.70
2018-05-14T05:03:47.230Z,11.70
2018-05-14T05:06:14.796Z,11.70
2018-05-14T05:08:42.357Z,11.70
2018-05-14T05:11:09.911Z,11.70
2018-05-14T05:13:37.437Z,11.70
2018-05-14T05:16:05.768Z,11.70
2018-05-14T05:18:33.416Z,11.60
2018-05-14T05:21:00.948Z,11.70
2018-05-14T05:23:29.255Z,11.70
2018-05-14T05:25:56.787Z,11.70
2018-05-14T05:28:25.116Z,11.60
2018-05-14T05:30:52.643Z,11.60
2018-05-14T05:33:20.179Z,11.70
2018-05-14T05:35:48.473Z,11.70
2018-05-14T05:38:16.036Z,11.60
2018-05-14T05:40:43.575Z,11.70
2018-05-14T05:43:12.091Z,11.60
2018-05-14T05:45:39.636Z,11.70
2018-05-14T05:48:07.217Z,11.70
2018-05-14T05:50:34.736Z,11.70
2018-05-14T05:53:03.019Z,11.70
2018-05-14T05:55:31.426Z,11.70
2018-05-14T05:57:58.968Z,11.60
2018-05-14T06:00:26.503Z,11.70
2018-05-14T06:02:54.902Z,11.70
2018-05-14T06:05:23.187Z,11.80
2018-05-14T06:07:50.764Z,11.80
2018-05-14T06:10:18.298Z,11.80
2018-05-14T06:12:46.606Z,11.80
2018-05-14T06:15:14.139Z,11.70
2018-05-14T06:17:42.472Z,11.80
2018-05-14T06:20:10.019Z,11.80
2018-05-14T06:22:37.540Z,11.90
2018-05-14T06:25:05.075Z,11.90
2018-05-14T06:27:33.392Z,11.90
2018-05-14T06:30:00.906Z,12.00
2018-05-14T06:32:28.722Z,12.00
2018-05-14T06:34:57.816Z,12.00
2018-05-14T06:37:25.350Z,12.00
2018-05-14T06:39:53.654Z,12.10
2018-05-14T06:42:21.207Z,12.10
2018-05-14T06:44:48.731Z,12.10
2018-05-14T06:47:16.264Z,12.10
2018-05-14T06:49:43.811Z,12.10
2018-05-14T06:52:11.348Z,12.10
2018-05-14T06:54:38.898Z,12.10
2018-05-14T06:57:07.298Z,12.30
2018-05-14T06:59:34.818Z,12.20
2018-05-14T07:02:03.168Z,12.30
2018-05-14T07:04:30.720Z,12.20
2018-05-14T07:06:58.242Z,12.30
2018-05-14T07:09:25.781Z,12.30
2018-05-14T07:11:54.070Z,12.30
2018-05-14T07:14:22.359Z,12.40
2018-05-14T07:16:49.927Z,12.40
2018-05-14T07:19:17.511Z,12.50
2018-05-14T07:21:45.054Z,12.50
2018-05-14T07:24:12.599Z,12.50
2018-05-14T07:26:40.373Z,12.50
2018-05-14T07:29:08.436Z,12.50
2018-05-14T07:31:36.010Z,12.50
2018-05-14T07:34:03.534Z,12.60
2018-05-14T07:36:31.826Z,12.60
2018-05-14T07:39:00.231Z,12.60
2018-05-14T07:41:27.788Z,12.60
2018-05-14T07:43:55.320Z,12.70
2018-05-14T07:46:23.633Z,12.70
2018-05-14T07:48:51.229Z,12.70
2018-05-14T07:51:18.767Z,12.70
2018-05-14T07:53:46.410Z,12.60
2018-05-14T07:56:13.946Z,12.60
2018-05-14T07:58:42.243Z,12.60
2018-05-14T08:01:09.816Z,12.60
2018-05-14T08:03:37.371Z,12.60
2018-05-14T08:06:04.913Z,12.60
2018-05-14T08:08:32.448Z,12.70
2018-05-14T08:11:00.763Z,12.80
2018-05-14T08:13:29.545Z,12.80
2018-05-14T08:15:57.103Z,12.80
2018-05-14T08:18:24.645Z,12.80
2018-05-14T08:20:52.944Z,12.80
2018-05-14T08:23:20.496Z,12.80
2018-05-14T08:25:48.024Z,12.80
2018-05-14T08:28:16.322Z,12.80
2018-05-14T08:30:44.723Z,12.80
2018-05-14T08:33:12.903Z,12.80
2018-05-14T08:35:40.445Z,12.90
2018-05-14T08:38:08.050Z,12.90
2018-05-14T08:40:35.548Z,12.90
2018-05-14T08:43:03.837Z,13.10
2018-05-14T08:45:31.417Z,13.10
2018-05-14T08:47:59.075Z,13.20
2018-05-14T08:50:26.535Z,13.30
2018-05-14T08:52:54.081Z,13.20
2018-05-14T08:55:21.615Z,13.20
2018-05-14T08:57:54.401Z,13.20
2018-05-14T09:00:22.690Z,13.10
2018-05-14T09:02:50.990Z,13.10
2018-05-14T09:05:18.557Z,13.10
2018-05-14T09:07:46.109Z,13.00
2018-05-14T09:10:15.100Z,13.00
2018-05-14T09:12:42.645Z,13.10
2018-05-14T09:15:11.303Z,13.30
2018-05-14T09:17:39.611Z,13.40
2018-05-14T09:20:07.902Z,13.50
2018-05-14T09:22:35.424Z,13.50
2018-05-14T09:25:02.959Z,13.50
2018-05-14T09:27:30.806Z,13.40
2018-05-14T09:29:58.358Z,13.50
2018-05-14T09:32:26.104Z,13.50
2018-05-14T09:34:54.636Z,13.60
2018-05-14T09:37:22.329Z,13.60
2018-05-14T09:39:49.802Z,13.70
2018-05-14T09:42:18.196Z,13.80
2018-05-14T09:44:45.751Z,13.80
2018-05-14T09:47:13.276Z,13.90
2018-05-14T09:49:41.596Z,14.00
2018-05-14T09:52:09.385Z,14.00
2018-05-14T09:54:36.683Z,14.10
2018-05-14T09:57:05.093Z,14.10
2018-05-14T09:59:32.653Z,14.20
2018-05-14T10:02:00.231Z,14.20
2018-05-14T10:04:27.759Z,14.30
2018-05-14T10:06:57.690Z,14.50
2018-05-14T10:09:25.241Z,14.40
2018-05-14T10:11:53.546Z,14.60
2018-05-14T10:14:21.101Z,14.60
2018-05-14T10:16:48.631Z,14.70
2018-05-14T10:19:16.936Z,14.80
2018-05-14T10:21:44.584Z,14.80
2018-05-14T10:24:12.136Z,14.90
2018-05-14T10:26:40.881Z,14.90
2018-05-14T10:29:08.414Z,14.90
2018-05-14T10:31:36.041Z,15.00
2018-05-14T10:34:04.347Z,15.00
2018-05-14T10:36:31.913Z,14.90
2018-05-14T10:38:59.443Z,15.00
2018-05-14T10:41:27.849Z,15.10
2018-05-14T10:43:55.373Z,15.10
2018-05-14T10:46:23.675Z,15.10
2018-05-14T10:48:51.231Z,15.10
2018-05-14T10:51:18.799Z,15.10
2018-05-14T10:53:46.357Z,15.10
2018-05-14T10:56:13.927Z,15.20
2018-05-14T10:58:41.539Z,15.20
2018-05-14T11:01:09.035Z,15.20
2018-05-14T11:03:36.594Z,15.30
2018-05-14T11:06:04.117Z,15.40
2018-05-14T11:08:31.639Z,15.50
2018-05-14T11:10:59.293Z,15.50
2018-05-14T11:13:26.844Z,15.60
2018-05-14T11:15:54.369Z,15.70
2018-05-14T11:18:22.671Z,15.80
2018-05-14T11:20:50.197Z,15.80
2018-05-14T11:23:18.508Z,16.00
2018-05-14T11:25:46.034Z,15.90
2018-05-14T11:28:13.577Z,16.00
2018-05-14T11:30:41.206Z,16.10
2018-05-14T11:33:08.734Z,16.20
2018-05-14T11:35:37.018Z,16.60
2018-05-14T11:38:05.406Z,16.60
2018-05-14T11:40:32.937Z,16.60
2018-05-14T11:43:01.223Z,17.00
2018-05-14T11:45:29.545Z,17.00
2018-05-14T11:47:57.197Z,17.00
2018-05-14T11:50:24.757Z,17.10
2018-05-14T11:52:52.275Z,17.10
2018-05-14T11:55:20.680Z,17.40
2018-05-14T11:57:48.208Z,17.30
2018-05-14T12:00:15.719Z,17.80
2018-05-14T12:02:43.250Z,18.00
2018-05-14T12:05:10.846Z,18.00
2018-05-14T12:07:38.389Z,18.20
2018-05-14T12:10:06.008Z,18.40
2018-05-14T12:12:33.515Z,18.50
2018-05-14T12:15:01.084Z,18.60
2018-05-14T12:17:28.614Z,18.90
2018-05-14T12:19:56.908Z,19.30
2018-05-14T12:22:24.472Z,19.20
2018-05-14T12:24:52.004Z,19.40
2018-05-14T12:27:20.292Z,19.20
2018-05-14T12:29:47.860Z,19.10
2018-05-14T12:32:15.422Z,19.30
2018-05-14T12:34:42.944Z,19.40
2018-05-14T12:37:10.551Z,19.70
2018-05-14T12:39:38.074Z,20.00
2018-05-14T12:42:06.480Z,20.10
2018-05-14T12:44:34.033Z,20.10
2018-05-14T12:47:02.434Z,20.30
2018-05-14T12:49:29.964Z,20.30
2018-05-14T12:51:58.306Z,20.10
2018-05-14T12:54:25.834Z,20.10
2018-05-14T12:56:53.352Z,20.30
2018-05-14T12:59:21.668Z,20.80
2018-05-14T13:01:49.198Z,20.70
2018-05-14T13:04:17.508Z,20.60
2018-05-14T13:06:45.036Z,20.60
2018-05-14T13:09:13.337Z,21.10
2018-05-14T13:11:40.907Z,21.10
2018-05-14T13:14:08.429Z,21.20
2018-05-14T13:16:36.841Z,21.30
2018-05-14T13:19:04.357Z,21.30
2018-05-14T13:21:31.877Z,21.50
2018-05-14T13:23:59.525Z,21.30
2018-05-14T13:26:27.043Z,21.20
2018-05-14T13:28:55.337Z,21.80
2018-05-14T13:31:23.761Z,21.80
2018-05-14T13:33:51.299Z,21.70
2018-05-14T13:36:18.883Z,21.80
2018-05-14T13:38:46.432Z,21.80
2018-05-14T13:41:13.956Z,21.80
2018-05-14T13:43:42.239Z,22.00
2018-05-14T13:46:09.827Z,22.00
2018-05-14T13:48:37.353Z,22.30
2018-05-14T13:51:05.740Z,22.60
2018-05-14T13:53:33.201Z,22.60
2018-05-14T13:56:01.500Z,22.40
2018-05-14T13:58:29.019Z,22.40
2018-05-14T14:00:57.309Z,22.90
2018-05-14T14:03:25.604Z,22.90
2018-05-14T14:05:53.132Z,22.90
2018-05-14T14:08:21.436Z,23.00
2018-05-14T14:10:48.951Z,22.90
2018-05-14T14:13:16.469Z,23.10
2018-05-14T14:15:44.022Z,23.00
2018-05-14T14:18:11.565Z,23.10
2018-05-14T14:20:39.096Z,23.10
2018-05-14T14:23:06.657Z,23.20
2018-05-14T14:25:34.176Z,23.10
2018-05-14T14:28:01.697Z,23.10
2018-05-14T14:30:29.996Z,23.00
2018-05-14T14:32:57.572Z,23.00
2018-05-14T14:35:25.091Z,23.00
2018-05-14T14:37:53.515Z,23.10
2018-05-14T14:40:21.038Z,23.10
2018-05-14T14:42:49.322Z,23.30
2018-05-14T14:45:16.991Z,23.30
2018-05-14T14:47:44.520Z,23.40
2018-05-14T14:50:12.843Z,23.40
2018-05-14T14:52:40.397Z,23.40
2018-05-14T14:55:07.920Z,23.30
2018-05-14T14:57:36.215Z,23.30
2018-05-14T15:00:04.525Z,23.30
2018-05-14T15:02:32.052Z,23.20
2018-05-14T15:05:00.352Z,23.40
2018-05-14T15:07:27.923Z,23.40
2018-05-14T15:09:55.451Z,23.30
2018-05-14T15:12:23.859Z,23.20
2018-05-14T15:14:51.388Z,23.20
2018-05-14T15:17:19.678Z,23.30
2018-05-14T15:19:47.269Z,23.30
2018-05-14T15:22:14.805Z,23.30
2018-05-14T15:24:42.335Z,23.40
2018-05-14T15:27:10.627Z,23.50
2018-05-14T15:29:39.010Z,23.50
2018-05-14T15:32:06.571Z,23.50
2018-05-14T15:34:34.159Z,23.50
2018-05-14T15:37:01.687Z,23.60
2018-05-14T15:39:30.002Z,23.60
2018-05-14T15:41:57.546Z,23.60
2018-05-14T15:44:25.113Z,23.60
2018-05-14T15:46:52.663Z,23.70
2018-05-14T15:49:20.199Z,23.60
2018-05-14T15:51:48.526Z,23.50
2018-05-14T15:54:16.076Z,23.40
2018-05-14T15:56:43.611Z,23.40
2018-05-14T15:59:11.137Z,23.50
2018-05-14T16:01:39.452Z,23.30
2018-05-14T16:04:07.002Z,23.30
2018-05-14T16:06:35.309Z,23.00
2018-05-14T16:09:02.861Z,23.00
2018-05-14T16:11:30.428Z,22.80
2018-05-14T16:13:57.991Z,22.80
2018-05-14T16:16:25.513Z,22.80
2018-05-14T16:18:53.822Z,22.80
2018-05-14T16:21:21.360Z,22.80
2018-05-14T16:23:49.659Z,22.80
2018-05-14T16:26:17.224Z,22.80
2018-05-14T16:28:44.783Z,22.80
2018-05-14T16:31:12.308Z,22.70
2018-05-14T16:33:40.608Z,22.70
2018-05-14T16:36:08.180Z,22.70
2018-05-14T16:38:35.711Z,22.70
2018-05-14T16:41:04.015Z,22.60
2018-05-14T16:43:31.595Z,22.60
2018-05-14T16:45:59.123Z,22.50
2018-05-14T16:48:26.665Z,22.30
2018-05-14T16:50:54.956Z,22.10
2018-05-14T16:53:23.329Z,22.00
2018-05-14T16:55:51.620Z,21.90
2018-05-14T16:58:19.160Z,21.90
2018-05-14T17:00:47.511Z,21.70
2018-05-14T17:03:15.204Z,21.70
2018-05-14T17:05:43.628Z,21.60
2018-05-14T17:08:11.157Z,21.60
2018-05-14T17:10:39.449Z,21.30
2018-05-14T17:13:07.000Z,21.30
2018-05-14T17:15:34.581Z,21.20
2018-05-14T17:18:02.121Z,21.00
2018-05-14T17:20:29.681Z,21.00
2018-05-14T17:22:57.291Z,20.90
2018-05-14T17:25:25.535Z,20.70
2018-05-14T17:27:53.104Z,20.70
2018-05-14T17:30:20.634Z,20.60
2018-05-14T17:32:48.171Z,20.40
2018-05-14T17:35:15.761Z,20.40
2018-05-14T17:37:43.346Z,20.50
2018-05-14T17:40:10.875Z,20.40
2018-05-14T17:42:38.464Z,20.30
2018-05-14T17:45:05.980Z,20.10
2018-05-14T17:47:34.274Z,19.90
2018-05-14T17:50:01.802Z,19.80
2018-05-14T17:52:29.431Z,19.80
2018-05-14T17:54:56.960Z,19.70
2018-05-14T17:57:24.543Z,19.60
2018-05-14T17:59:52.095Z,19.50
2018-05-14T18:02:19.623Z,19.50
2018-05-14T18:04:48.032Z,19.30
2018-05-14T18:07:15.594Z,19.30
2018-05-14T18:09:43.158Z,19.20
2018-05-14T18:12:10.736Z,19.20
2018-05-14T18:14:38.263Z,19.00
2018-05-14T18:17:05.796Z,18.90
2018-05-14T18:19:39.137Z,18.80
2018-05-14T18:22:12.760Z,18.80
2018-05-14T18:24:45.930Z,18.70
2018-05-14T18:27:13.472Z,18.50
2018-05-14T18:29:41.004Z,18.40
2018-05-14T18:32:08.546Z,18.40
2018-05-14T18:34:39.926Z,18.40
2018-05-14T18:37:08.328Z,18.10
2018-05-14T18:39:35.864Z,18.10
2018-05-14T18:42:05.165Z,17.80
2018-05-14T18:44:33.467Z,17.70
2018-05-14T18:47:00.993Z,17.70
2018-05-14T18:49:29.289Z,17.50
2018-05-14T18:51:57.686Z,17.40
2018-05-14T18:54:25.139Z,17.40
2018-05-14T18:56:52.708Z,17.20
2018-05-14T18:59:20.241Z,17.20
2018-05-14T19:01:48.557Z,17.00
2018-05-14T19:04:16.116Z,17.00
2018-05-14T19:06:43.638Z,16.90
2018-05-14T19:09:11.927Z,16.80
2018-05-14T19:11:45.138Z,16.80
2018-05-14T19:14:12.668Z,16.70
2018-05-14T19:16:46.576Z,16.60
2018-05-14T19:19:14.876Z,16.60
2018-05-14T19:21:42.408Z,16.50
2018-05-14T19:24:10.716Z,16.40
2018-05-14T19:26:38.305Z,16.30
2018-05-14T19:29:11.474Z,16.20
2018-05-14T19:31:39.004Z,16.10
2018-05-14T19:34:13.092Z,15.90
2018-05-14T19:36:40.717Z,15.90
2018-05-14T19:39:08.249Z,15.80
2018-05-14T19:41:36.568Z,15.60
2018-05-14T19:44:04.100Z,15.50
2018-05-14T19:46:31.633Z,15.50
2018-05-14T19:49:00.105Z,15.30
2018-05-14T19:51:27.623Z,15.30
2018-05-14T19:53:55.165Z,15.20
2018-05-14T19:56:22.724Z,15.10
2018-05-14T19:58:50.245Z,15.00
2018-05-14T20:01:17.782Z,14.90
2018-05-14T20:03:45.336Z,14.80
2018-05-14T20:06:12.873Z,14.70
2018-05-14T20:08:40.419Z,14.60
2018-05-14T20:11:07.994Z,14.50
2018-05-14T20:13:35.544Z,14.40
2018-05-14T20:16:03.071Z,14.40
2018-05-14T20:18:31.384Z,14.20
2018-05-14T20:20:58.920Z,14.20
2018-05-14T20:23:27.347Z,14.10
2018-05-14T20:25:54.981Z,14.10
2018-05-14T20:28:22.505Z,14.10
2018-05-14T20:30:50.083Z,14.10
2018-05-14T20:33:18.375Z,14.00
2018-05-14T20:35:45.907Z,13.90
2018-05-14T20:38:14.217Z,13.90
2018-05-14T20:40:41.783Z,13.80
2018-05-14T20:43:09.335Z,13.80
2018-05-14T20:45:36.911Z,13.80
2018-05-14T20:48:04.442Z,13.70
2018-05-14T20:50:32.735Z,13.60
2018-05-14T20:53:00.267Z,13.60
2018-05-14T20:55:27.866Z,13.60
2018-05-14T20:57:55.403Z,13.60
2018-05-14T21:00:23.692Z,13.60
2018-05-14T21:02:51.257Z,13.50
2018-05-14T21:05:18.778Z,13.60
2018-05-14T21:07:46.301Z,13.60
2018-05-14T21:10:13.842Z,13.50
2018-05-14T21:12:41.382Z,13.50
2018-05-14T21:15:09.691Z,13.40
2018-05-14T21:17:37.238Z,13.40
2018-05-14T21:20:04.765Z,13.40
2018-05-14T21:22:33.056Z,13.30
2018-05-14T21:25:01.472Z,13.30
2018-05-14T21:27:29.000Z,13.30
2018-05-14T21:29:56.571Z,13.30
2018-05-14T21:32:24.126Z,13.30
2018-05-14T21:34:51.668Z,13.20
2018-05-14T21:37:19.973Z,13.10
2018-05-14T21:39:47.534Z,13.10
2018-05-14T21:42:15.101Z,13.10
2018-05-14T21:44:42.634Z,13.10
2018-05-14T21:47:11.026Z,13.00
2018-05-14T21:49:38.551Z,13.00
2018-05-14T21:52:06.071Z,13.00
2018-05-14T21:54:33.615Z,13.00
2018-05-14T21:57:01.151Z,13.00
2018-05-14T21:59:29.561Z,13.00
2018-05-14T22:01:57.186Z,13.00
2018-05-14T22:04:24.637Z,13.00
2018-05-14T22:06:53.870Z,13.00
2018-05-14T22:09:21.405Z,13.00
2018-05-14T22:11:49.689Z,13.00
2018-05-14T22:14:18.091Z,13.00
2018-05-14T22:16:45.642Z,13.00
2018-05-14T22:19:13.215Z,13.00
2018-05-14T22:21:40.745Z,13.00
2018-05-14T22:24:09.053Z,13.00
2018-05-14T22:26:36.678Z,13.00
2018-05-14T22:29:04.262Z,13.00
2018-05-14T22:31:31.941Z,13.00
2018-05-14T22:33:59.491Z,12.90
2018-05-14T22:39:01.055Z,12.90
2018-05-14T22:41:28.616Z,12.90
2018-05-14T22:43:56.220Z,12.90
2018-05-14T22:46:23.812Z,12.90
2018-05-14T22:48:52.151Z,12.90
2018-05-14T22:51:19.901Z,12.90
2018-05-14T22:53:47.582Z,12.90
2018-05-14T22:56:15.148Z,12.90
2018-05-14T22:58:42.719Z,12.90
2018-05-14T23:01:10.307Z,12.90
2018-05-14T23:03:38.637Z,12.90
2018-05-14T23:06:06.202Z,12.90
2018-05-14T23:08:33.789Z,12.90
2018-05-14T23:11:01.407Z,12.90
2018-05-14T23:13:29.065Z,12.90
2018-05-14T23:15:56.597Z,12.90
2018-05-14T23:18:25.003Z,13.00
2018-05-14T23:20:52.527Z,12.90
2018-05-14T23:23:20.827Z,13.00
2018-05-14T23:25:48.344Z,12.90
2018-05-14T23:28:15.955Z,13.00
2018-05-14T23:30:43.492Z,13.00
2018-05-14T23:33:11.797Z,12.90
2018-05-14T23:35:39.317Z,12.90
2018-05-14T23:38:07.636Z,12.90
2018-05-14T23:40:35.161Z,12.90
2018-05-14T23:43:03.450Z,12.90
2018-05-14T23:45:31.759Z,12.90
2018-05-14T23:47:59.286Z,12.90
2018-05-14T23:50:27.592Z,12.90
2018-05-14T23:52:55.148Z,12.90
2018-05-14T23:55:22.690Z,12.90
2018-05-14T23:57:50.220Z,12.90
